createdAt,value
2022-11-12T00:00:14.487Z,42.60
2022-11-12T00:02:59.872Z,39.93
2022-11-12T00:05:45.834Z,38.60
2022-11-12T00:08:31.471Z,39.40
2022-11-12T00:11:17.021Z,41.17
2022-11-12T00:14:02.457Z,41.50
2022-11-12T00:16:48.054Z,41.57
2022-11-12T00:19:33.578Z,42.73
2022-11-12T00:22:19.551Z,41.67
2022-11-12T00:25:05.393Z,42.30
2022-11-12T00:27:50.804Z,41.00
2022-11-12T00:30:39.727Z,41.13
2022-11-12T00:33:25.077Z,40.47
2022-11-12T00:36:11.329Z,40.20
2022-11-12T00:38:56.698Z,41.17
2022-11-12T00:41:42.104Z,43.20
2022-11-12T00:44:29.523Z,41.33
2022-11-12T00:47:15.656Z,42.87
2022-11-12T00:50:01.295Z,42.27
2022-11-12T00:52:46.926Z,42.03
2022-11-12T00:55:32.429Z,44.70
2022-11-12T00:58:18.007Z,40.60
2022-11-12T01:01:12.608Z,42.87
2022-11-12T01:03:59.495Z,43.37
2022-11-12T01:06:44.994Z,41.83
2022-11-12T01:09:30.502Z,41.10
2022-11-12T01:12:16.011Z,41.67
2022-11-12T01:15:01.765Z,44.40
2022-11-12T01:17:47.114Z,42.30
2022-11-12T01:20:32.728Z,41.67
2022-11-12T01:23:18.154Z,43.90
2022-11-12T01:26:08.731Z,46.17
2022-11-12T01:28:54.705Z,40.47
2022-11-12T01:31:39.926Z,37.97
2022-11-12T01:34:26.538Z,36.73
2022-11-12T01:37:11.949Z,37.37
2022-11-12T01:39:57.404Z,36.93
2022-11-12T01:42:42.992Z,33.53
2022-11-12T01:45:29.074Z,35.13
2022-11-12T01:48:31.460Z,34.87
2022-11-12T01:51:17.141Z,33.53
2022-11-12T01:54:06.296Z,35.80
2022-11-12T01:56:51.914Z,33.97
2022-11-12T01:59:43.863Z,33.70
2022-11-12T02:02:30.191Z,33.70
2022-11-12T02:05:16.461Z,34.03
2022-11-12T02:08:04.377Z,33.53
2022-11-12T02:10:51.112Z,33.20
2022-11-12T02:13:55.155Z,34.33
2022-11-12T02:16:43.711Z,32.83
2022-11-12T02:19:29.301Z,34.03
2022-11-12T02:22:14.647Z,34.80
2022-11-12T02:25:00.144Z,32.80
2022-11-12T02:27:51.660Z,33.83
2022-11-12T02:30:42.624Z,34.37
2022-11-12T02:33:28.034Z,32.93
2022-11-12T02:36:13.730Z,32.80
2022-11-12T02:38:59.501Z,31.37
2022-11-12T02:41:44.805Z,32.27
2022-11-12T02:44:31.182Z,32.40
2022-11-12T02:47:17.291Z,33.17
2022-11-12T02:50:03.429Z,32.20
2022-11-12T02:52:48.904Z,34.53
2022-11-12T02:55:34.539Z,34.03
2022-11-12T02:58:22.704Z,34.33
2022-11-12T03:01:08.014Z,32.67
2022-11-12T03:03:53.544Z,32.37
2022-11-12T03:06:40.004Z,35.07
2022-11-12T03:09:25.542Z,34.00
2022-11-12T03:12:11.028Z,35.73
2022-11-12T03:14:56.743Z,35.03
2022-11-12T03:17:41.991Z,35.83
2022-11-12T03:20:28.225Z,35.97
2022-11-12T03:23:13.446Z,37.00
2022-11-12T03:25:59.172Z,37.80
2022-11-12T03:28:44.289Z,35.83
2022-11-12T03:31:29.612Z,37.03
2022-11-12T03:34:15.201Z,34.83
2022-11-12T03:37:00.830Z,35.77
2022-11-12T03:39:46.249Z,35.17
2022-11-12T03:42:31.888Z,35.70
2022-11-12T03:45:18.670Z,34.40
2022-11-12T03:48:04.177Z,34.87
2022-11-12T03:50:49.563Z,35.33
2022-11-12T03:53:35.101Z,33.47
2022-11-12T03:56:20.722Z,33.93
2022-11-12T03:59:06.204Z,33.97
2022-11-12T04:01:51.684Z,34.93
2022-11-12T04:04:55.590Z,36.03
2022-11-12T04:07:59.626Z,34.37
2022-11-12T04:10:45.271Z,35.23
2022-11-12T04:13:30.870Z,34.23
2022-11-12T04:16:39.662Z,34.43
2022-11-12T04:19:43.716Z,34.93
2022-11-12T04:22:29.281Z,34.60
2022-11-12T04:25:33.148Z,33.00
2022-11-12T04:28:18.738Z,32.57
2022-11-12T04:31:04.139Z,35.23
2022-11-12T04:33:49.904Z,34.83
2022-11-12T04:36:35.431Z,33.33
2022-11-12T04:39:20.891Z,35.30
2022-11-12T04:42:26.751Z,35.43
2022-11-12T04:45:12.299Z,36.30
2022-11-12T04:47:57.913Z,37.63
2022-11-12T04:50:47.337Z,33.83
2022-11-12T04:53:32.738Z,32.80
2022-11-12T04:56:18.264Z,35.63
2022-11-12T04:59:03.878Z,34.50
2022-11-12T05:01:49.355Z,36.87
2022-11-12T05:04:35.038Z,35.70
2022-11-12T05:07:20.402Z,34.00
2022-11-12T05:10:06.299Z,34.13
2022-11-12T05:12:51.938Z,35.40
2022-11-12T05:15:37.384Z,36.93
2022-11-12T05:18:23.298Z,39.00
2022-11-12T05:21:27.568Z,37.73
2022-11-12T05:24:27.611Z,39.50
2022-11-12T05:27:20.958Z,43.50
2022-11-12T05:30:07.954Z,41.97
2022-11-12T05:32:53.873Z,43.23
2022-11-12T05:35:39.293Z,44.23
2022-11-12T05:38:25.236Z,43.00
2022-11-12T05:41:11.617Z,44.53
2022-11-12T05:43:58.291Z,42.43
2022-11-12T05:46:44.123Z,43.57
2022-11-12T05:49:30.592Z,43.27
2022-11-12T05:52:16.004Z,42.80
2022-11-12T05:55:01.175Z,40.67
2022-11-12T05:57:46.613Z,41.30
2022-11-12T06:00:32.258Z,40.50
2022-11-12T06:03:18.206Z,40.83
2022-11-12T06:06:03.892Z,40.53
2022-11-12T06:08:49.444Z,42.63
2022-11-12T06:11:35.330Z,40.10
2022-11-12T06:14:20.697Z,40.60
2022-11-12T06:17:06.291Z,40.40
2022-11-12T06:19:51.849Z,38.83
2022-11-12T06:22:37.773Z,39.63
2022-11-12T06:25:24.248Z,38.70
2022-11-12T06:28:09.939Z,36.10
2022-11-12T06:30:55.830Z,34.70
2022-11-12T06:33:42.026Z,36.00
2022-11-12T06:36:27.701Z,34.33
2022-11-12T06:39:13.228Z,31.90
2022-11-12T06:41:58.517Z,32.00
2022-11-12T06:44:44.317Z,34.27
2022-11-12T06:47:29.638Z,32.67
2022-11-12T06:50:15.531Z,31.77
2022-11-12T06:53:01.075Z,31.90
2022-11-12T06:55:46.872Z,31.57
2022-11-12T06:58:32.254Z,30.27
2022-11-12T07:01:18.139Z,31.40
2022-11-12T07:04:04.543Z,30.17
2022-11-12T07:06:49.708Z,31.50
2022-11-12T07:09:35.160Z,30.67
2022-11-12T07:12:20.777Z,31.43
2022-11-12T07:15:06.835Z,29.60
2022-11-12T07:17:52.575Z,31.63
2022-11-12T07:20:37.789Z,31.23
2022-11-12T07:23:23.596Z,29.93
2022-11-12T07:26:23.735Z,30.50
2022-11-12T07:29:09.660Z,30.43
2022-11-12T07:31:55.360Z,29.47
2022-11-12T07:34:40.837Z,28.90
2022-11-12T07:37:26.538Z,30.00
2022-11-12T07:40:12.315Z,30.30
2022-11-12T07:42:59.620Z,31.17
2022-11-12T07:45:45.510Z,29.50
2022-11-12T07:48:31.725Z,30.83
2022-11-12T07:51:23.208Z,32.93
2022-11-12T07:54:08.903Z,31.70
2022-11-12T07:56:54.332Z,30.20
2022-11-12T07:59:45.732Z,32.20
2022-11-12T08:02:31.948Z,30.53
2022-11-12T08:05:21.152Z,29.87
2022-11-12T08:08:07.308Z,30.03
2022-11-12T08:10:56.916Z,30.90
2022-11-12T08:13:42.302Z,30.40
2022-11-12T08:16:28.031Z,30.50
2022-11-12T08:19:13.387Z,29.87
2022-11-12T08:21:58.904Z,32.10
2022-11-12T08:24:44.604Z,29.90
2022-11-12T08:27:30.056Z,30.00
2022-11-12T08:30:15.704Z,30.43
2022-11-12T08:33:04.643Z,30.80
2022-11-12T08:35:50.501Z,27.27
2022-11-12T08:38:36.677Z,30.17
2022-11-12T08:41:22.453Z,28.73
2022-11-12T08:44:08.849Z,29.97
2022-11-12T08:46:54.625Z,27.40
2022-11-12T08:49:43.809Z,27.03
2022-11-12T08:52:33.270Z,26.87
2022-11-12T08:55:18.894Z,25.50
2022-11-12T08:58:05.252Z,26.00
2022-11-12T09:00:51.020Z,26.07
2022-11-12T09:03:36.525Z,25.17
2022-11-12T09:06:21.775Z,22.47
2022-11-12T09:09:07.584Z,24.03
2022-11-12T09:11:53.215Z,24.90
2022-11-12T09:14:38.658Z,24.00
2022-11-12T09:17:24.250Z,24.13
2022-11-12T09:20:09.782Z,24.63
2022-11-12T09:23:03.179Z,22.90
2022-11-12T09:25:48.887Z,21.43
2022-11-12T09:28:34.552Z,22.57
2022-11-12T09:31:19.758Z,20.97
2022-11-12T09:34:05.488Z,22.03
2022-11-12T09:36:50.678Z,21.70
2022-11-12T09:39:36.192Z,19.97
2022-11-12T09:42:23.519Z,21.93
2022-11-12T09:45:19.216Z,20.43
2022-11-12T09:48:11.918Z,21.67
2022-11-12T09:51:02.413Z,19.83
2022-11-12T09:53:59.081Z,22.10
2022-11-12T09:56:44.879Z,21.53
2022-11-12T09:59:32.995Z,20.40
2022-11-12T10:02:42.971Z,22.17
2022-11-12T10:05:42.067Z,20.60
2022-11-12T10:08:45.359Z,19.97
2022-11-12T10:12:10.376Z,21.60
2022-11-12T10:15:39.019Z,20.77
2022-11-12T10:18:24.798Z,22.07
2022-11-12T10:21:40.910Z,20.57
2022-11-12T10:24:33.484Z,21.57
2022-11-12T10:27:27.463Z,21.70
2022-11-12T10:30:24.803Z,20.60
2022-11-12T10:33:15.049Z,21.13
2022-11-12T10:36:23.795Z,22.67
2022-11-12T10:39:09.388Z,20.83
2022-11-12T10:42:07.791Z,22.30
2022-11-12T10:44:53.373Z,23.40
2022-11-12T10:47:42.972Z,22.83
2022-11-12T10:50:42.783Z,23.03
2022-11-12T10:53:34.991Z,24.03
2022-11-12T10:56:31.632Z,24.77
2022-11-12T10:59:18.445Z,23.37
2022-11-12T11:02:15.484Z,23.77
2022-11-12T11:05:00.943Z,24.47
2022-11-12T11:07:50.144Z,21.97
2022-11-12T11:10:36.881Z,22.00
2022-11-12T11:13:27.245Z,22.67
2022-11-12T11:16:15.970Z,21.33
2022-11-12T11:19:05.403Z,21.53
2022-11-12T11:21:51.015Z,22.13
2022-11-12T11:24:48.514Z,21.13
2022-11-12T11:27:54.930Z,21.20
2022-11-12T11:30:53.930Z,21.63
2022-11-12T11:33:59.305Z,21.20
2022-11-12T11:37:02.951Z,19.73
2022-11-12T11:40:10.796Z,19.60
2022-11-12T11:43:26.580Z,20.23
2022-11-12T11:46:26.483Z,19.97
2022-11-12T11:49:21.215Z,19.40
2022-11-12T11:52:29.736Z,19.60
2022-11-12T11:55:33.182Z,19.73
2022-11-12T11:58:43.555Z,19.50
2022-11-12T12:01:47.195Z,16.90
2022-11-12T12:04:49.870Z,17.97
2022-11-12T12:07:41.805Z,17.67
2022-11-12T12:11:01.374Z,17.90
2022-11-12T12:14:08.007Z,17.53
2022-11-12T12:17:15.990Z,18.30
2022-11-12T12:20:14.181Z,18.87
2022-11-12T12:23:26.835Z,18.50
2022-11-12T12:26:30.900Z,17.63
2022-11-12T12:29:28.608Z,18.43
2022-11-12T12:32:28.602Z,19.23
2022-11-12T12:35:40.544Z,17.27
2022-11-12T12:38:32.110Z,19.17
2022-11-12T12:41:45.812Z,20.10
2022-11-12T12:45:08.698Z,19.37
2022-11-12T12:47:54.820Z,18.40
2022-11-12T12:50:42.604Z,18.87
2022-11-12T12:53:27.973Z,19.43
2022-11-12T12:56:13.385Z,20.27
2022-11-12T12:59:04.020Z,20.60
2022-11-12T13:02:01.638Z,19.37
2022-11-12T13:04:57.460Z,19.90
2022-11-12T13:07:46.431Z,19.63
2022-11-12T13:10:47.317Z,20.03
2022-11-12T13:13:35.147Z,20.70
2022-11-12T13:16:50.474Z,21.53
2022-11-12T13:19:39.410Z,21.23
2022-11-12T13:22:25.004Z,20.93
2022-11-12T13:25:13.782Z,19.67
2022-11-12T13:28:07.731Z,21.00
2022-11-12T13:30:53.243Z,18.27
2022-11-12T13:33:39.700Z,21.33
2022-11-12T13:36:28.016Z,20.77
2022-11-12T13:39:19.056Z,21.20
2022-11-12T13:42:35.312Z,21.73
2022-11-12T13:45:24.777Z,20.20
2022-11-12T13:48:43.530Z,19.50
2022-11-12T13:51:39.878Z,20.17
2022-11-12T13:54:31.063Z,20.93
2022-11-12T13:57:24.064Z,20.20
2022-11-12T14:00:20.841Z,20.90
2022-11-12T14:03:18.635Z,22.30
2022-11-12T14:06:14.907Z,19.90
2022-11-12T14:09:35.223Z,20.37
2022-11-12T14:12:39.471Z,20.77
2022-11-12T14:15:48.753Z,20.20
2022-11-12T14:19:12.135Z,21.00
2022-11-12T14:22:12.421Z,21.43
2022-11-12T14:25:02.181Z,20.70
2022-11-12T14:27:52.679Z,21.53
2022-11-12T14:30:44.820Z,20.17
2022-11-12T14:33:32.359Z,19.47
2022-11-12T14:36:19.590Z,22.13
2022-11-12T14:39:06.681Z,20.40
2022-11-12T14:41:52.979Z,21.30
2022-11-12T14:44:38.722Z,20.17
2022-11-12T14:47:24.310Z,20.90
2022-11-12T14:50:17.128Z,22.07
2022-11-12T14:53:08.177Z,22.63
2022-11-12T14:55:55.509Z,19.93
2022-11-12T14:58:41.156Z,21.50
2022-11-12T15:04:44.902Z,21.50
2022-11-12T15:07:35.097Z,22.73
2022-11-12T15:10:30.288Z,21.10
2022-11-12T15:13:25.096Z,20.37
2022-11-12T15:16:16.431Z,21.97
2022-11-12T15:19:16.098Z,21.07
2022-11-12T15:22:03.994Z,22.30
2022-11-12T15:24:49.728Z,22.47
2022-11-12T15:27:37.225Z,23.17
2022-11-12T15:30:31.932Z,22.60
2022-11-12T15:33:22.678Z,20.87
2022-11-12T15:36:20.516Z,22.83
2022-11-12T15:39:13.561Z,22.43
2022-11-12T15:42:02.419Z,22.50
2022-11-12T15:44:48.420Z,21.60
2022-11-12T15:47:33.941Z,22.17
2022-11-12T15:50:24.968Z,23.73
2022-11-12T15:53:10.892Z,22.23
2022-11-12T15:55:56.992Z,22.47
2022-11-12T15:58:42.607Z,22.57
2022-11-12T16:01:27.982Z,22.80
2022-11-12T16:04:14.017Z,27.37
2022-11-12T16:07:00.221Z,26.30
2022-11-12T16:09:46.247Z,28.23
2022-11-12T16:12:31.699Z,23.63
2022-11-12T16:15:20.631Z,26.87
2022-11-12T16:18:06.127Z,25.00
2022-11-12T16:20:51.806Z,25.47
2022-11-12T16:23:37.423Z,26.43
2022-11-12T16:26:30.875Z,26.20
2022-11-12T16:29:16.609Z,21.97
2022-11-12T16:32:03.119Z,21.20
2022-11-12T16:34:48.359Z,22.80
2022-11-12T16:37:34.063Z,22.00
2022-11-12T16:40:25.773Z,23.23
2022-11-12T16:43:11.542Z,22.70
2022-11-12T16:45:57.987Z,21.73
2022-11-12T16:48:43.653Z,24.63
2022-11-12T16:51:29.430Z,24.80
2022-11-12T16:54:15.013Z,23.53
2022-11-12T16:57:00.613Z,25.70
2022-11-12T16:59:46.256Z,22.67
2022-11-12T17:02:31.675Z,24.43
2022-11-12T17:05:20.443Z,24.30
2022-11-12T17:08:05.736Z,25.23
2022-11-12T17:10:51.238Z,23.20
2022-11-12T17:13:38.774Z,22.47
2022-11-12T17:16:24.246Z,24.57
2022-11-12T17:19:10.541Z,23.03
2022-11-12T17:21:56.279Z,25.80
2022-11-12T17:24:41.792Z,27.00
2022-11-12T17:27:27.574Z,25.47
2022-11-12T17:30:13.393Z,27.00
2022-11-12T17:33:00.116Z,28.37
2022-11-12T17:35:45.746Z,28.73
2022-11-12T17:38:31.139Z,30.53
2022-11-12T17:41:16.607Z,28.87
2022-11-12T17:44:02.739Z,25.30
2022-11-12T17:46:48.861Z,25.57
2022-11-12T17:49:34.067Z,28.73
2022-11-12T17:52:19.578Z,29.03
2022-11-12T17:55:05.710Z,25.87
2022-11-12T17:57:51.177Z,25.30
2022-11-12T18:00:38.359Z,29.33
2022-11-12T18:03:24.214Z,25.23
2022-11-12T18:06:16.207Z,26.80
2022-11-12T18:09:07.280Z,28.03
2022-11-12T18:11:56.816Z,27.00
2022-11-12T18:14:42.353Z,26.10
2022-11-12T18:17:27.759Z,26.67
2022-11-12T18:20:13.268Z,27.13
2022-11-12T18:22:58.870Z,26.60
2022-11-12T18:25:44.579Z,27.53
2022-11-12T18:28:30.155Z,24.90
2022-11-12T18:31:15.621Z,29.03
2022-11-12T18:34:01.052Z,32.70
2022-11-12T18:36:46.681Z,33.33
2022-11-12T18:39:32.383Z,29.33
2022-11-12T18:42:17.747Z,27.90
2022-11-12T18:45:03.421Z,27.10
2022-11-12T18:47:48.641Z,27.20
2022-11-12T18:50:34.434Z,27.67
2022-11-12T18:53:19.707Z,27.33
2022-11-12T18:56:13.686Z,25.87
2022-11-12T18:58:59.144Z,27.53
2022-11-12T19:01:44.866Z,26.67
2022-11-12T19:04:30.900Z,28.83
2022-11-12T19:07:16.479Z,28.00
2022-11-12T19:10:14.564Z,28.97
2022-11-12T19:13:03.939Z,37.87
2022-11-12T19:15:49.442Z,39.53
2022-11-12T19:18:35.108Z,41.60
2022-11-12T19:21:23.525Z,34.80
2022-11-12T19:24:09.171Z,31.40
2022-11-12T19:26:54.417Z,30.50
2022-11-12T19:29:40.027Z,31.57
2022-11-12T19:32:25.584Z,31.10
2022-11-12T19:35:11.008Z,32.87
2022-11-12T19:37:56.696Z,33.63
2022-11-12T19:40:42.446Z,32.30
2022-11-12T19:43:28.493Z,35.23
2022-11-12T19:46:14.536Z,29.00
2022-11-12T19:49:00.187Z,33.03
2022-11-12T19:51:45.767Z,32.60
2022-11-12T19:54:31.057Z,33.10
2022-11-12T19:57:16.637Z,33.87
2022-11-12T20:00:02.219Z,35.83
2022-11-12T20:02:47.661Z,33.37
2022-11-12T20:05:33.245Z,34.93
2022-11-12T20:08:18.972Z,32.43
2022-11-12T20:11:05.102Z,31.87
2022-11-12T20:13:53.556Z,31.83
2022-11-12T20:16:39.511Z,32.53
2022-11-12T20:19:26.363Z,32.70
2022-11-12T20:22:12.080Z,32.30
2022-11-12T20:24:58.091Z,30.93
2022-11-12T20:27:43.343Z,32.37
2022-11-12T20:30:28.743Z,30.67
2022-11-12T20:33:14.514Z,31.93
2022-11-12T20:36:06.128Z,32.57
2022-11-12T20:38:53.406Z,31.17
2022-11-12T20:41:38.930Z,32.23
2022-11-12T20:44:24.582Z,30.40
2022-11-12T20:47:10.248Z,30.47
2022-11-12T20:49:55.694Z,31.60
2022-11-12T20:52:41.246Z,29.30
2022-11-12T20:55:26.873Z,32.33
2022-11-12T20:58:12.131Z,32.90
2022-11-12T21:00:57.787Z,33.07
2022-11-12T21:03:44.599Z,33.17
2022-11-12T21:06:30.268Z,33.67
2022-11-12T21:09:16.528Z,31.63
2022-11-12T21:12:02.396Z,31.73
2022-11-12T21:14:50.607Z,31.90
2022-11-12T21:17:36.284Z,30.63
2022-11-12T21:20:21.834Z,28.67
2022-11-12T21:23:07.808Z,30.03
2022-11-12T21:25:52.989Z,28.87
2022-11-12T21:28:38.533Z,29.77
2022-11-12T21:31:26.326Z,31.17
2022-11-12T21:34:11.853Z,32.47
2022-11-12T21:36:57.238Z,30.60
2022-11-12T21:39:42.795Z,29.23
2022-11-12T21:42:28.418Z,27.90
2022-11-12T21:45:14.121Z,26.63
2022-11-12T21:47:59.639Z,27.00
2022-11-12T21:50:45.210Z,27.83
2022-11-12T21:53:30.676Z,28.87
2022-11-12T21:56:17.998Z,30.53
2022-11-12T21:59:04.479Z,29.30
2022-11-12T22:01:49.965Z,28.37
2022-11-12T22:04:35.710Z,28.13
2022-11-12T22:07:21.479Z,30.80
2022-11-12T22:10:07.585Z,30.20
2022-11-12T22:13:25.004Z,29.30
2022-11-12T22:15:59.315Z,30.43
2022-11-12T22:18:47.251Z,28.23
2022-11-12T22:21:38.623Z,29.97
2022-11-12T22:24:25.590Z,25.27
2022-11-12T22:27:11.222Z,24.67
2022-11-12T22:29:56.855Z,23.20
2022-11-12T22:32:42.213Z,22.60
2022-11-12T22:35:27.885Z,20.47
2022-11-12T22:38:13.493Z,24.67
2022-11-12T22:41:04.119Z,40.93
2022-11-12T22:43:51.465Z,45.53
2022-11-12T22:46:37.086Z,46.40
2022-11-12T22:49:22.706Z,39.13
2022-11-12T22:52:08.206Z,45.93
2022-11-12T22:54:53.418Z,44.27
2022-11-12T22:57:39.063Z,48.57
2022-11-12T23:00:31.078Z,46.00
2022-11-12T23:03:16.111Z,39.80
2022-11-12T23:06:05.154Z,42.30
2022-11-12T23:08:52.366Z,32.33
2022-11-12T23:11:38.350Z,32.07
2022-11-12T23:14:24.091Z,30.73
2022-11-12T23:17:09.518Z,33.93
2022-11-12T23:19:54.935Z,31.53
2022-11-12T23:22:40.920Z,31.73
2022-11-12T23:25:26.374Z,33.40
2022-11-12T23:28:11.946Z,32.60
2022-11-12T23:30:58.011Z,33.23
2022-11-12T23:33:47.719Z,32.87
2022-11-12T23:36:33.278Z,35.03
2022-11-12T23:39:18.639Z,32.87
2022-11-12T23:42:04.264Z,35.80
2022-11-12T23:44:49.820Z,36.73
2022-11-12T23:47:35.171Z,35.10
2022-11-12T23:50:20.650Z,35.87
2022-11-12T23:53:06.153Z,35.93
2022-11-12T23:55:52.043Z,36.83
2022-11-12T23:58:38.770Z,40.27
